createdAt,value
2019-03-13T00:04:06.064Z,2.57
2019-03-13T00:10:01.110Z,2.24
2019-03-13T00:15:56.081Z,19.31
2019-03-13T00:21:51.086Z,3.34
2019-03-13T00:27:46.118Z,2.95
2019-03-13T00:33:41.060Z,5.86
2019-03-13T00:39:36.096Z,5.09
2019-03-13T00:45:31.070Z,3.69
2019-03-13T00:51:26.130Z,2.47
2019-03-13T00:57:21.108Z,4.6
2019-03-13T01:03:16.088Z,4.92
2019-03-13T01:09:11.102Z,3.94
2019-03-13T01:15:06.141Z,4.21
2019-03-13T01:21:01.091Z,2.16
2019-03-13T01:27:05.719Z,2.94
2019-03-13T01:32:51.099Z,2.31
2019-03-13T01:38:46.141Z,3.41
2019-03-13T01:44:41.092Z,4.27
2019-03-13T01:50:36.119Z,9.71
2019-03-13T01:56:31.115Z,5.43
2019-03-13T02:02:26.109Z,3.69
2019-03-13T02:08:21.101Z,2.6
2019-03-13T02:14:16.104Z,7.86
2019-03-13T02:20:11.117Z,6.04
2019-03-13T02:26:06.127Z,7.62
2019-03-13T02:32:01.100Z,5.64
2019-03-13T02:37:56.117Z,4.54
2019-03-13T02:43:51.123Z,5.01
2019-03-13T02:49:46.108Z,3.66
2019-03-13T02:55:41.126Z,3.5
2019-03-13T03:01:36.097Z,4.17
2019-03-13T03:07:31.113Z,3.75
2019-03-13T03:13:26.116Z,2.81
2019-03-13T03:19:21.105Z,2.96
2019-03-13T03:25:16.116Z,3.07
2019-03-13T03:31:11.176Z,2.3
2019-03-13T03:37:06.113Z,3.09
2019-03-13T03:43:01.173Z,3.95
2019-03-13T03:48:56.114Z,3.66
2019-03-13T03:54:51.124Z,5.24
2019-03-13T04:00:46.160Z,4.53
2019-03-13T04:06:41.166Z,3.71
2019-03-13T04:12:36.113Z,2.58
2019-03-13T04:18:31.147Z,2.97
2019-03-13T04:24:26.149Z,3
2019-03-13T04:30:21.164Z,2.48
2019-03-13T04:36:16.178Z,3.18
2019-03-13T04:42:11.221Z,2.12
2019-03-13T04:48:06.142Z,2.27
2019-03-13T04:54:01.129Z,2.59
2019-03-13T04:59:56.131Z,2.15
2019-03-13T05:05:57.395Z,3.14
2019-03-13T05:11:46.153Z,3.48
2019-03-13T05:17:41.176Z,3.55
2019-03-13T05:23:36.176Z,3.58
2019-03-13T05:29:31.131Z,3.08
2019-03-13T05:35:26.177Z,3.89
2019-03-13T05:41:21.154Z,4.12
2019-03-13T05:47:16.198Z,4.08
2019-03-13T05:53:11.147Z,3.75
2019-03-13T05:59:06.166Z,2.93
2019-03-13T06:05:01.154Z,4.7
2019-03-13T06:10:56.179Z,4.96
2019-03-13T06:16:51.145Z,6.44
2019-03-13T06:22:46.170Z,6.31
2019-03-13T06:28:41.143Z,7.34
2019-03-13T06:34:36.161Z,5.65
2019-03-13T06:40:31.151Z,4.18
2019-03-13T06:46:26.159Z,4.25
2019-03-13T06:52:21.215Z,5.6
2019-03-13T06:58:16.178Z,4.97
2019-03-13T07:04:11.174Z,4.98
2019-03-13T07:10:06.149Z,5.93
2019-03-13T07:16:01.191Z,5.17
2019-03-13T07:21:56.179Z,8.15
2019-03-13T07:27:51.175Z,10.04
2019-03-13T07:33:46.161Z,5.62
2019-03-13T07:39:41.168Z,6.01
2019-03-13T07:45:36.156Z,8.55
2019-03-13T07:51:31.218Z,8.38
2019-03-13T07:57:26.189Z,8.63
2019-03-13T08:03:21.224Z,8.95
2019-03-13T08:09:16.212Z,8.64
2019-03-13T08:15:11.206Z,9.49
2019-03-13T08:21:06.192Z,8.8
2019-03-13T08:27:01.166Z,10.17
2019-03-13T08:32:56.180Z,11.44
2019-03-13T08:38:51.244Z,11.62
2019-03-13T08:44:46.171Z,8.87
2019-03-13T08:50:41.192Z,7.9
2019-03-13T08:56:36.238Z,8.64
2019-03-13T09:02:31.196Z,8.81
2019-03-13T09:08:26.228Z,8.08
2019-03-13T09:14:21.179Z,10.75
2019-03-13T09:20:16.193Z,19.68
2019-03-13T09:26:11.244Z,14.7
2019-03-13T09:32:06.231Z,15.66
2019-03-13T09:38:01.182Z,11.32
2019-03-13T09:43:59.500Z,9.96
2019-03-13T09:49:51.194Z,10.99
2019-03-13T09:55:46.203Z,12.07
2019-03-13T10:01:41.244Z,9.68
2019-03-13T10:07:36.211Z,11.64
2019-03-13T10:13:31.199Z,11.1
2019-03-13T10:19:26.243Z,10.35
2019-03-13T10:25:21.284Z,10.2
2019-03-13T10:31:16.212Z,8.73
2019-03-13T10:37:11.231Z,8.08
2019-03-13T10:43:06.241Z,8.93
2019-03-13T10:49:01.219Z,9.25
2019-03-13T10:54:56.211Z,10.11
2019-03-13T11:00:51.213Z,9.35
2019-03-13T11:06:54.673Z,14.03
2019-03-13T11:12:41.224Z,12.61
2019-03-13T11:18:36.215Z,10.39
2019-03-13T11:24:31.244Z,12.02
2019-03-13T11:30:26.221Z,11.97
2019-03-13T11:36:21.238Z,13.53
2019-03-13T11:42:16.843Z,14.24
2019-03-13T11:48:11.224Z,15.07
2019-03-13T11:54:06.225Z,19.21
2019-03-13T12:00:01.278Z,19.65
2019-03-13T12:05:56.232Z,15.45
2019-03-13T12:11:51.324Z,14.47
2019-03-13T12:17:46.281Z,12.54
2019-03-13T12:23:41.224Z,13.63
2019-03-13T12:29:36.237Z,12.17
2019-03-13T12:35:31.249Z,12.67
2019-03-13T12:41:26.273Z,11.61
2019-03-13T12:47:21.273Z,12.03
2019-03-13T12:53:16.292Z,9.77
2019-03-13T12:59:11.268Z,11.78
2019-03-13T13:05:06.234Z,10.3
2019-03-13T13:11:01.237Z,10.29
2019-03-13T13:16:56.235Z,13.03
2019-03-13T13:22:51.247Z,11.41
2019-03-13T13:28:46.300Z,10.68
2019-03-13T13:34:41.260Z,10.5
2019-03-13T13:40:36.279Z,12.63
2019-03-13T13:46:31.267Z,10.35
2019-03-13T13:52:26.284Z,13.21
2019-03-13T13:58:21.304Z,10.06
2019-03-13T14:04:16.259Z,3.8
2019-03-13T14:10:11.234Z,3.91
2019-03-13T14:16:06.257Z,4.74
2019-03-13T14:22:01.259Z,4.74
2019-03-13T14:27:56.432Z,6.46
2019-03-13T14:33:51.278Z,6.87
2019-03-13T14:39:46.258Z,8.99
2019-03-13T14:45:41.282Z,5.87
2019-03-13T14:51:36.261Z,3.64
2019-03-13T14:57:31.295Z,5.88
2019-03-13T15:03:26.287Z,3.79
2019-03-13T15:09:21.318Z,2.84
2019-03-13T15:15:16.255Z,4.98
2019-03-13T15:21:11.281Z,3.48
2019-03-13T15:27:06.250Z,10.07
2019-03-13T15:33:01.331Z,3.26
2019-03-13T15:38:56.255Z,3.64
2019-03-13T15:44:51.275Z,3.56
2019-03-13T15:50:46.285Z,3.59
2019-03-13T15:56:41.269Z,2.25
2019-03-13T16:02:36.339Z,3.18
2019-03-13T16:08:31.284Z,3.96
2019-03-13T16:14:26.286Z,5.38
2019-03-13T16:20:21.303Z,6.46
2019-03-13T16:26:16.314Z,8.64
2019-03-13T16:32:11.291Z,8.02
2019-03-13T16:38:06.284Z,13.62
2019-03-13T16:44:01.263Z,12.38
2019-03-13T16:49:56.268Z,8
2019-03-13T16:55:51.258Z,9.62
2019-03-13T17:01:46.316Z,10.29
2019-03-13T17:07:41.289Z,10.76
2019-03-13T17:13:36.285Z,13.13
2019-03-13T17:19:31.281Z,11.75
2019-03-13T17:25:26.286Z,11.25
2019-03-13T17:31:21.334Z,10.28
2019-03-13T17:37:16.267Z,8.6
2019-03-13T17:43:11.266Z,12.42
2019-03-13T17:49:06.274Z,9.68
2019-03-13T17:55:01.259Z,8.7
2019-03-13T18:00:56.320Z,12.5
2019-03-13T18:06:51.293Z,22.77
2019-03-13T18:12:46.308Z,9.74
2019-03-13T18:18:41.293Z,9.23
2019-03-13T18:24:36.330Z,7.53
2019-03-13T18:30:35.839Z,21.7
2019-03-13T18:36:26.272Z,10.24
2019-03-13T18:42:21.283Z,11.99
2019-03-13T18:48:16.312Z,7.95
2019-03-13T18:54:11.303Z,7.44
2019-03-13T19:00:06.326Z,8.6
2019-03-13T19:06:01.314Z,11.33
2019-03-13T19:11:56.294Z,6.54
2019-03-13T19:17:51.333Z,4.59
2019-03-13T19:23:46.314Z,5.71
2019-03-13T19:29:41.309Z,15.79
2019-03-13T19:35:36.307Z,9.46
2019-03-13T19:41:31.471Z,3.78
2019-03-13T19:47:26.337Z,7.56
2019-03-13T19:53:21.328Z,11.68
2019-03-13T19:59:16.345Z,7.61
2019-03-13T20:05:11.299Z,7.59
2019-03-13T20:11:06.359Z,4.6
2019-03-13T20:17:01.314Z,16.17
2019-03-13T20:22:57.101Z,9.37
2019-03-13T20:28:51.336Z,7.8
2019-03-13T20:34:46.302Z,8.33
2019-03-13T20:40:41.306Z,7.25
2019-03-13T20:46:36.312Z,8.7
2019-03-13T20:52:31.333Z,8.23
2019-03-13T20:58:26.322Z,5.83
2019-03-13T21:04:21.339Z,6.99
2019-03-13T21:10:16.335Z,9.5
2019-03-13T21:16:11.340Z,6.57
2019-03-13T21:22:06.327Z,9.39
2019-03-13T21:28:01.333Z,8.09
2019-03-13T21:33:56.415Z,6.5
2019-03-13T21:39:51.327Z,6.69
2019-03-13T21:45:46.363Z,9.87
2019-03-13T21:51:41.524Z,7.13
2019-03-13T21:57:36.343Z,6.2
2019-03-13T22:03:32.640Z,6.72
2019-03-13T22:09:26.344Z,7.16
2019-03-13T22:15:21.382Z,6.61
2019-03-13T22:21:16.345Z,6.88
2019-03-13T22:27:13.590Z,6.42
2019-03-13T22:33:06.359Z,6.67
2019-03-13T22:39:01.361Z,10.34
2019-03-13T22:44:56.354Z,6.22
2019-03-13T22:50:51.341Z,8.4
2019-03-13T22:56:46.370Z,5.24
2019-03-13T23:02:41.371Z,6.09
2019-03-13T23:08:36.322Z,6.6
2019-03-13T23:14:31.355Z,6.96
2019-03-13T23:20:26.397Z,6.89
2019-03-13T23:26:21.405Z,8.13
2019-03-13T23:32:16.392Z,7.81
2019-03-13T23:38:11.345Z,7.56
2019-03-13T23:44:06.378Z,7.6
2019-03-13T23:50:01.379Z,10.13
2019-03-13T23:55:56.379Z,8.98
